• Join FlightAware (Why Join?)
  • Login
  • US Flag 
07:50AM EDT


 

Airport Tracker/Info


-or-


 

Live Flight TrackerFlight Track Log ✈ QFA10 ✈ 12-Mar-2012 ✈ WSSS / SIN - YMML / MEL

Flight Track Log - Related Links

Times and Time Zones

All times are in EDT time to prevent confusion due to time zone crossing. See the QFA10 flight status page for this flight to view local times or setup timezone preferences in your user account.

Time Position Orientation Groundspeed Altitude Reporting Facility
EDT Latitude Longitude Course Direction KTS MPH feet Rate Location/Type
08:15AM -0.0976 105.1908 140° Southeast  Level Estimated
08:16AM -0.1926 105.2695 140° Southeast  Level Estimated
08:17AM -0.2875 105.3481 140° Southeast  Level Estimated
08:18AM -0.3825 105.4267 140° Southeast  Level Estimated
08:19AM -0.4775 105.5054 140° Southeast  Level Estimated
08:20AM -0.5725 105.5840 140° Southeast  Level Estimated
08:21AM -0.6675 105.6627 140° Southeast  Level Estimated
08:22AM -0.7625 105.7413 140° Southeast  Level Estimated
08:23AM -0.8575 105.8200 140° Southeast  Level Estimated
08:24AM -0.9524 105.8986 140° Southeast  Level Estimated
08:25AM -1.0474 105.9773 140° Southeast  Level Estimated
08:26AM -1.1424 106.0559 140° Southeast  Level Estimated
08:27AM -1.2374 106.1346 140° Southeast  Level Estimated
08:28AM -1.3324 106.2133 140° Southeast  Level Estimated
08:29AM -1.4273 106.2920 140° Southeast  Level Estimated
08:30AM -1.5223 106.3707 140° Southeast  Level Estimated
08:31AM -1.6173 106.4494 140° Southeast  Level Estimated
08:32AM -1.7122 106.5281 140° Southeast  Level Estimated
08:33AM -1.8072 106.6068 140° Southeast  Level Estimated
08:34AM -1.9022 106.6855 140° Southeast  Level Estimated
08:35AM -1.9971 106.7643 140° Southeast  Level Estimated
08:36AM -2.0921 106.8430 140° Southeast  Level Estimated
08:37AM -2.1870 106.9217 140° Southeast  Level Estimated
08:38AM -2.2819 107.0005 140° Southeast  Level Estimated
08:39AM -2.3769 107.0793 140° Southeast  Level Estimated
08:40AM -2.4718 107.1580 140° Southeast  Level Estimated
08:41AM -2.5667 107.2368 140° Southeast  Level Estimated
08:42AM -2.6617 107.3156 140° Southeast  Level Estimated
08:43AM -2.7566 107.3944 140° Southeast  Level Estimated
08:44AM -2.8515 107.4733 140° Southeast  Level Estimated
08:45AM -2.9464 107.5521 140° Southeast  Level Estimated
08:46AM -3.0413 107.6310 140° Southeast  Level Estimated
08:47AM -3.1362 107.7098 140° Southeast  Level Estimated
08:48AM -3.2311 107.7887 140° Southeast  Level Estimated
08:49AM -3.3260 107.8676 140° Southeast  Level Estimated
08:50AM -3.4209 107.9465 140° Southeast  Level Estimated
08:51AM -3.5157 108.0254 140° Southeast  Level Estimated
08:52AM -3.6106 108.1044 140° Southeast  Level Estimated
08:53AM -3.7054 108.1833 140° Southeast  Level Estimated
08:54AM -3.8003 108.2623 140° Southeast  Level Estimated
08:55AM -3.8951 108.3413 140° Southeast  Level Estimated
08:56AM -3.9900 108.4203 140° Southeast  Level Estimated
08:57AM -4.0848 108.4994 140° Southeast  Level Estimated
08:58AM -4.1796 108.5784 140° Southeast  Level Estimated
08:59AM -4.2744 108.6575 140° Southeast  Level Estimated
09:00AM -4.3692 108.7366 140° Southeast  Level Estimated
09:01AM -4.4640 108.8157 140° Southeast  Level Estimated
09:02AM -4.5588 108.8948 140° Southeast  Level Estimated
09:03AM -4.6536 108.9739 140° Southeast  Level Estimated
09:04AM -4.7484 109.0531 140° Southeast  Level Estimated
09:05AM -4.8431 109.1323 140° Southeast  Level Estimated
09:06AM -4.9379 109.2115 140° Southeast  Level Estimated
09:07AM -5.0326 109.2907 140° Southeast  Level Estimated
09:08AM -5.1273 109.3700 140° Southeast  Level Estimated
09:09AM -5.2221 109.4493 140° Southeast  Level Estimated
09:10AM -5.3168 109.5286 140° Southeast  Level Estimated
09:11AM -5.4115 109.6079 140° Southeast  Level Estimated
09:12AM -5.5062 109.6873 140° Southeast  Level Estimated
09:13AM -5.6009 109.7666 140° Southeast  Level Estimated
09:14AM -5.6955 109.8460 140° Southeast  Level Estimated
09:15AM -5.7902 109.9255 140° Southeast  Level Estimated
09:16AM -5.8848 110.0049 140° Southeast  Level Estimated
09:17AM -5.9795 110.0844 140° Southeast  Level Estimated
09:18AM -6.0741 110.1639 140° Southeast  Level Estimated
09:19AM -6.1687 110.2435 140° Southeast  Level Estimated
09:20AM -6.2633 110.3230 140° Southeast  Level Estimated
09:21AM -6.3579 110.4026 140° Southeast  Level Estimated
09:22AM -6.4525 110.4823 140° Southeast  Level Estimated
09:23AM -6.5471 110.5619 140° Southeast  Level Estimated
09:24AM -6.6416 110.6416 140° Southeast  Level Estimated
09:25AM -6.7362 110.7213 140° Southeast  Level Estimated
09:26AM -6.8307 110.8011 140° Southeast  Level Estimated
09:27AM -6.9252 110.8809 140° Southeast  Level Estimated
09:28AM -7.0197 110.9607 140° Southeast  Level Estimated
09:29AM -7.1142 111.0405 140° Southeast  Level Estimated
09:30AM -7.2087 111.1204 140° Southeast  Level Estimated
09:31AM -7.3031 111.2003 140° Southeast  Level Estimated
09:32AM -7.3976 111.2803 140° Southeast  Level Estimated
09:33AM -7.4920 111.3602 140° Southeast  Level Estimated
09:34AM -7.5864 111.4402 140° Southeast  Level Estimated
09:35AM -7.6808 111.5203 140° Southeast  Level Estimated
09:36AM -7.7752 111.6004 140° Southeast  Level Estimated
09:37AM -7.8696 111.6805 140° Southeast  Level Estimated
09:38AM -7.9640 111.7607 140° Southeast  Level Estimated
09:39AM -8.0583 111.8409 140° Southeast  Level Estimated
09:40AM -8.1526 111.9211 140° Southeast  Level Estimated
09:41AM -8.2469 112.0014 140° Southeast  Level Estimated
09:42AM -8.3412 112.0817 140° Southeast  Level Estimated
09:43AM -8.4355 112.1620 140° Southeast  Level Estimated
09:44AM -8.5298 112.2424 140° Southeast  Level Estimated
09:45AM -8.6240 112.3229 140° Southeast  Level Estimated
09:46AM -8.7183 112.4033 140° Southeast  Level Estimated
09:47AM -8.8125 112.4838 140° Southeast  Level Estimated
09:48AM -8.9067 112.5644 140° Southeast  Level Estimated
09:49AM -9.0008 112.6450 140° Southeast  Level Estimated
09:50AM -9.0950 112.7256 140° Southeast  Level Estimated
09:51AM -9.1891 112.8063 140° Southeast  Level Estimated
09:52AM -9.2833 112.8870 140° Southeast  Level Estimated
09:53AM -9.3774 112.9678 140° Southeast  Level Estimated
09:54AM -9.4715 113.0486 140° Southeast  Level Estimated
09:55AM -9.5655 113.1294 140° Southeast  Level Estimated
09:56AM -9.6596 113.2103 140° Southeast  Level Estimated
09:57AM -9.7536 113.2912 140° Southeast  Level Estimated
09:58AM -9.8476 113.3722 140° Southeast  Level Estimated
09:59AM -9.9416 113.4532 140° Southeast  Level Estimated
10:00AM -10.0356 113.5343 140° Southeast  Level Estimated
10:01AM -10.1296 113.6154 140° Southeast  Level Estimated
10:02AM -10.2235 113.6966 140° Southeast  Level Estimated
10:03AM -10.3174 113.7778 140° Southeast  Level Estimated
10:04AM -10.4113 113.8591 140° Southeast  Level Estimated
10:05AM -10.5052 113.9404 140° Southeast  Level Estimated
10:06AM -10.5991 114.0218 140° Southeast  Level Estimated
10:07AM -10.6929 114.1032 140° Southeast  Level Estimated
10:08AM -10.7867 114.1847 140° Southeast  Level Estimated
10:09AM -10.8805 114.2662 140° Southeast  Level Estimated
10:10AM -10.9743 114.3478 139° Southeast  Level Estimated
10:11AM -11.0680 114.4294 139° Southeast  Level Estimated
10:12AM -11.1618 114.5111 139° Southeast  Level Estimated
10:13AM -11.2555 114.5928 139° Southeast  Level Estimated
10:14AM -11.3491 114.6746 139° Southeast  Level Estimated
10:15AM -11.4428 114.7564 139° Southeast  Level Estimated
10:16AM -11.5364 114.8383 139° Southeast  Level Estimated
10:17AM -11.6300 114.9202 139° Southeast  Level Estimated
10:18AM -11.7236 115.0022 139° Southeast  Level Estimated
10:19AM -11.8172 115.0843 139° Southeast  Level Estimated
10:20AM -11.9108 115.1664 139° Southeast  Level Estimated
10:21AM -12.0043 115.2485 139° Southeast  Level Estimated
10:22AM -12.0978 115.3307 139° Southeast  Level Estimated
10:23AM -12.1912 115.4130 139° Southeast  Level Estimated
10:24AM -12.2847 115.4954 139° Southeast  Level Estimated
10:25AM -12.3781 115.5778 139° Southeast  Level Estimated
10:26AM -12.4715 115.6602 139° Southeast  Level Estimated
10:27AM -12.5649 115.7427 139° Southeast  Level Estimated
10:28AM -12.6582 115.8253 139° Southeast  Level Estimated
10:29AM -12.7515 115.9079 139° Southeast  Level Estimated
10:30AM -12.8448 115.9906 139° Southeast  Level Estimated
10:31AM -12.9381 116.0734 139° Southeast  Level Estimated
10:32AM -13.0314 116.1562 139° Southeast  Level Estimated
10:33AM -13.1246 116.2391 139° Southeast  Level Estimated
10:34AM -13.2178 116.3220 139° Southeast  Level Estimated
10:35AM -13.3109 116.4050 139° Southeast  Level Estimated
10:36AM -13.4041 116.4881 139° Southeast  Level Estimated
10:37AM -13.4972 116.5713 139° Southeast  Level Estimated
10:38AM -13.5903 116.6544 139° Southeast  Level Estimated
10:39AM -13.6833 116.7377 139° Southeast  Level Estimated
10:40AM -13.7764 116.8211 139° Southeast  Level Estimated
10:41AM -13.8694 116.9044 139° Southeast  Level Estimated
10:42AM -13.9623 116.9879 139° Southeast  Level Estimated
10:43AM -14.0553 117.0714 139° Southeast  Level Estimated
10:44AM -14.1482 117.1550 139° Southeast  Level Estimated
10:45AM -14.2411 117.2387 139° Southeast  Level Estimated
10:46AM -14.3339 117.3224 139° Southeast  Level Estimated
10:47AM -14.4268 117.4063 139° Southeast  Level Estimated
10:48AM -14.5196 117.4901 139° Southeast  Level Estimated
10:49AM -14.6123 117.5741 139° Southeast  Level Estimated
10:50AM -14.7051 117.6581 139° Southeast  Level Estimated
10:51AM -14.7978 117.7422 139° Southeast  Level Estimated
10:52AM -14.8904 117.8263 139° Southeast  Level Estimated
10:53AM -14.9831 117.9106 139° Southeast  Level Estimated
10:54AM -15.0757 117.9949 139° Southeast  Level Estimated
10:55AM -15.1683 118.0793 139° Southeast  Level Estimated
10:56AM -15.2608 118.1637 139° Southeast  Level Estimated
10:57AM -15.3534 118.2483 139° Southeast  Level Estimated
10:58AM -15.4459 118.3329 139° Southeast  Level Estimated
10:59AM -15.5383 118.4175 139° Southeast  Level Estimated
11:00AM -15.6307 118.5023 139° Southeast  Level Estimated
11:01AM -15.7231 118.5871 139° Southeast  Level Estimated
11:02AM -15.8155 118.6720 138° Southeast  Level Estimated
11:03AM -15.9078 118.7570 138° Southeast  Level Estimated
11:04AM -16.0001 118.8421 138° Southeast  Level Estimated
11:05AM -16.0924 118.9272 138° Southeast  Level Estimated
11:06AM -16.1846 119.0125 138° Southeast  Level Estimated
11:07AM -16.2768 119.0977 138° Southeast  Level Estimated
11:08AM -16.3689 119.1831 138° Southeast  Level Estimated
11:09AM -16.4611 119.2686 138° Southeast  Level Estimated
11:10AM -16.5531 119.3541 138° Southeast  Level Estimated
11:11AM -16.6452 119.4398 138° Southeast  Level Estimated
11:12AM -16.7372 119.5255 138° Southeast  Level Estimated
11:13AM -16.8292 119.6113 138° Southeast  Level Estimated
11:14AM -16.9211 119.6971 138° Southeast  Level Estimated
11:15AM -17.0131 119.7831 138° Southeast  Level Estimated
11:16AM -17.1049 119.8691 138° Southeast  Level Estimated
11:17AM -17.1968 119.9553 138° Southeast  Level Estimated
11:18AM -17.2886 120.0415 138° Southeast  Level Estimated
11:19AM -17.3803 120.1278 138° Southeast  Level Estimated
11:20AM -17.4721 120.2142 138° Southeast  Level Estimated
11:21AM -17.5638 120.3006 138° Southeast  Level Estimated
11:22AM -17.6554 120.3872 138° Southeast  Level Estimated
11:23AM -17.7470 120.4738 138° Southeast  Level Estimated
11:24AM -17.8386 120.5606 138° Southeast  Level Estimated
11:25AM -17.9301 120.6474 138° Southeast  Level Estimated
11:26AM -18.0217 120.7343 138° Southeast  Level Estimated
11:27AM -18.1131 120.8213 138° Southeast  Level Estimated
11:28AM -18.2045 120.9084 138° Southeast  Level Estimated
11:29AM -18.2959 120.9956 138° Southeast  Level Estimated
11:30AM -18.3873 121.0829 138° Southeast  Level Estimated
11:31AM -18.4785 121.1703 138° Southeast  Level Estimated
11:32AM -18.5698 121.2577 138° Southeast  Level Estimated
11:33AM -18.6610 121.3453 138° Southeast  Level Estimated
11:34AM -18.7522 121.4330 138° Southeast  Level Estimated
11:35AM -18.8433 121.5207 138° Southeast  Level Estimated
11:36AM -18.9345 121.6085 138° Southeast  Level Estimated
11:37AM -19.0255 121.6965 138° Southeast  Level Estimated
11:38AM -19.1165 121.7845 138° Southeast  Level Estimated
11:39AM -19.2075 121.8727 138° Southeast  Level Estimated
11:40AM -19.2984 121.9609 137° Southeast  Level Estimated
11:41AM -19.3893 122.0492 137° Southeast  Level Estimated
11:42AM -19.4802 122.1376 137° Southeast  Level Estimated
11:43AM -19.5710 122.2262 137° Southeast  Level Estimated
11:44AM -19.6618 122.3148 137° Southeast  Level Estimated
11:45AM -19.7525 122.4035 137° Southeast  Level Estimated
11:46AM -19.8431 122.4923 137° Southeast  Level Estimated
11:47AM -19.9338 122.5813 137° Southeast  Level Estimated
11:48AM -20.0244 122.6703 137° Southeast  Level Estimated
11:49AM -20.1149 122.7595 137° Southeast  Level Estimated
11:50AM -20.2054 122.8487 137° Southeast  Level Estimated
11:51AM -20.2959 122.9380 137° Southeast  Level Estimated
11:52AM -20.3863 123.0275 137° Southeast  Level Estimated
11:53AM -20.4766 123.1170 137° Southeast  Level Estimated
11:54AM -20.5669 123.2067 137° Southeast  Level Estimated
11:55AM -20.6572 123.2964 137° Southeast  Level Estimated
11:56AM -20.7474 123.3863 137° Southeast  Level Estimated
11:57AM -20.8376 123.4763 137° Southeast  Level Estimated
11:58AM -20.9277 123.5664 137° Southeast  Level Estimated
11:59AM -21.0178 123.6565 137° Southeast  Level Estimated
12:00PM -21.1078 123.7468 137° Southeast  Level Estimated
12:01PM -21.1978 123.8373 137° Southeast  Level Estimated
12:02PM -21.2878 123.9278 137° Southeast  Level Estimated
12:03PM -21.3777 124.0184 137° Southeast  Level Estimated
12:04PM -21.4675 124.1092 137° Southeast  Level Estimated
12:05PM -21.5553 124.1980 137° Southeast  Level Estimated
12:06PM -21.6431 124.2869 137° Southeast  Level Estimated
12:07PM -21.7308 124.3760 137° Southeast  Level Estimated
12:08PM -21.8184 124.4651 137° Southeast  Level Estimated
12:09PM -21.9060 124.5544 137° Southeast  Level Estimated
12:10PM -21.9936 124.6438 137° Southeast  Level Estimated
12:11PM -22.0811 124.7333 137° Southeast  Level Estimated
12:12PM -22.1686 124.8229 136° Southeast  Level Estimated
12:13PM -22.2560 124.9126 136° Southeast  Level Estimated
12:14PM -22.3433 125.0024 136° Southeast  Level Estimated
12:15PM -22.4306 125.0923 136° Southeast  Level Estimated
12:16PM -22.5179 125.1824 136° Southeast  Level Estimated
12:17PM -22.6051 125.2726 136° Southeast  Level Estimated
12:18PM -22.6923 125.3628 136° Southeast  Level Estimated
12:19PM -22.7794 125.4532 136° Southeast  Level Estimated
12:20PM -22.8664 125.5437 136° Southeast  Level Estimated
12:21PM -22.9534 125.6344 136° Southeast  Level Estimated
12:22PM -23.0404 125.7251 136° Southeast  Level Estimated
12:23PM -23.1273 125.8159 136° Southeast  Level Estimated
12:24PM -23.2142 125.9069 136° Southeast  Level Estimated
12:25PM -23.3010 125.9980 136° Southeast  Level Estimated
12:26PM -23.3877 126.0892 136° Southeast  Level Estimated
12:27PM -23.4744 126.1805 136° Southeast  Level Estimated
12:28PM -23.5611 126.2720 136° Southeast  Level Estimated
12:29PM -23.6476 126.3636 136° Southeast  Level Estimated
12:30PM -23.7342 126.4553 136° Southeast  Level Estimated
12:31PM -23.8207 126.5471 136° Southeast  Level Estimated
12:32PM -23.9071 126.6390 136° Southeast  Level Estimated
12:33PM -23.9935 126.7311 136° Southeast  Level Estimated
12:34PM -24.0798 126.8233 136° Southeast  Level Estimated
12:35PM -24.1660 126.9156 136° Southeast  Level Estimated
12:36PM -24.2523 127.0080 136° Southeast  Level Estimated
12:37PM -24.3384 127.1006 136° Southeast  Level Estimated
12:38PM -24.4245 127.1933 136° Southeast  Level Estimated
12:39PM -24.5105 127.2861 136° Southeast  Level Estimated
12:40PM -24.5965 127.3790 135° Southeast  Level Estimated
12:41PM -24.6824 127.4721 135° Southeast  Level Estimated
12:42PM -24.7683 127.5653 135° Southeast  Level Estimated
12:43PM -24.8541 127.6586 31° Northeast  Level Estimated
12:47PM -22.5458 129.1425 360° North 39,000  Level Aus ATC (Calculated)
12:47PM -22.5458 129.1425 360° North 39,000  Level Aus ATC (Calculated)
12:47PM -22.5458 129.1425 360° North 39,000  Level Aus ATC (Calculated)
12:47PM -22.5458 129.1425 360° North 39,000  Level Aus ATC (Calculated)
12:47PM -22.5458 129.1425 142° Southeast 39,000  Level Aus ATC (Calculated)
12:48PM -22.6681 129.2468 142° Southeast  Level Estimated
12:49PM -22.7686 129.3327 142° Southeast  Level Estimated
12:50PM -22.8691 129.4187 142° Southeast  Level Estimated
12:51PM -22.9695 129.5049 142° Southeast  Level Estimated
12:52PM -23.0699 129.5911 142° Southeast  Level Estimated
12:53PM -23.1702 129.6775 142° Southeast  Level Estimated
12:54PM -23.2705 129.7640 142° Southeast  Level Estimated
12:55PM -23.3707 129.8507 142° Southeast  Level Estimated
12:56PM -23.4708 129.9375 142° Southeast  Level Estimated
12:57PM -23.5710 130.0244 141° Southeast  Level Estimated
12:58PM -23.6711 130.1115 141° Southeast  Level Estimated
12:59PM -23.7711 130.1986 141° Southeast  Level Estimated
01:00PM -23.8711 130.2859 141° Southeast  Level Estimated
01:01PM -23.9710 130.3734 141° Southeast  Level Estimated
01:02PM -24.0709 130.4610 141° Southeast  Level Estimated
01:03PM -24.1707 130.5487 141° Southeast  Level Estimated
01:04PM -24.2705 130.6366 141° Southeast  Level Estimated
01:05PM -24.3702 130.7245 141° Southeast  Level Estimated
01:06PM -24.4699 130.8127 141° Southeast  Level Estimated
01:07PM -24.5695 130.9010 141° Southeast  Level Estimated
01:08PM -24.6691 130.9894 141° Southeast  Level Estimated
01:09PM -24.7686 131.0779 141° Southeast  Level Estimated
01:10PM -24.8681 131.1666 141° Southeast  Level Estimated
01:11PM -24.9675 131.2555 141° Southeast  Level Estimated
01:12PM -25.0669 131.3445 141° Southeast  Level Estimated
01:13PM -25.1662 131.4336 141° Southeast  Level Estimated
01:14PM -25.2655 131.5229 141° Southeast  Level Estimated
01:15PM -25.3647 131.6123 141° Southeast  Level Estimated
01:16PM -25.4638 131.7018 141° Southeast  Level Estimated
01:17PM -25.5629 131.7916 141° Southeast  Level Estimated
01:18PM -25.6620 131.8814 141° Southeast  Level Estimated
01:19PM -25.7610 131.9714 141° Southeast  Level Estimated
01:20PM -25.8599 132.0616 141° Southeast  Level Estimated
01:21PM -25.9588 132.1519 141° Southeast  Level Estimated
01:22PM -26.0576 132.2424 141° Southeast  Level Estimated
01:23PM -26.1564 132.3330 140° Southeast  Level Estimated
01:24PM -26.2551 132.4238 140° Southeast  Level Estimated
01:25PM -26.3537 132.5147 140° Southeast  Level Estimated
01:26PM -26.4523 132.6058 140° Southeast  Level Estimated
01:27PM -26.5508 132.6970 140° Southeast  Level Estimated
01:28PM -26.6493 132.7885 140° Southeast  Level Estimated
01:29PM -26.7477 132.8800 140° Southeast  Level Estimated
01:30PM -26.8461 132.9718 140° Southeast  Level Estimated
01:31PM -26.9444 133.0636 140° Southeast  Level Estimated
01:32PM -27.0427 133.1557 140° Southeast  Level Estimated
01:33PM -27.1408 133.2478 140° Southeast  Level Estimated
01:34PM -27.2390 133.3402 140° Southeast  Level Estimated
01:35PM -27.3370 133.4327 140° Southeast  Level Estimated
01:36PM -27.4350 133.5254 140° Southeast  Level Estimated
01:37PM -27.5329 133.6183 140° Southeast  Level Estimated
01:38PM -27.6308 133.7113 140° Southeast  Level Estimated
01:39PM -27.7286 133.8044 140° Southeast  Level Estimated
01:40PM -27.8264 133.8978 140° Southeast  Level Estimated
01:41PM -27.9241 133.9913 140° Southeast  Level Estimated
01:42PM -28.0217 134.0850 140° Southeast  Level Estimated
01:43PM -28.1193 134.1788 140° Southeast  Level Estimated
01:44PM -28.2168 134.2729 140° Southeast  Level Estimated
01:45PM -28.3142 134.3671 140° Southeast  Level Estimated
01:46PM -28.4116 134.4614 140° Southeast  Level Estimated
01:47PM -28.5089 134.5560 139° Southeast  Level Estimated
01:48PM -28.6061 134.6507 139° Southeast  Level Estimated
01:49PM -28.7033 134.7456 139° Southeast  Level Estimated
01:50PM -28.8004 134.8407 139° Southeast  Level Estimated
01:51PM -28.8974 134.9359 139° Southeast  Level Estimated
01:52PM -28.9944 135.0314 139° Southeast  Level Estimated
01:53PM -29.0913 135.1270 139° Southeast  Level Estimated
01:54PM -29.1881 135.2227 139° Southeast  Level Estimated
01:55PM -29.2849 135.3187 139° Southeast  Level Estimated
01:56PM -29.3816 135.4148 139° Southeast  Level Estimated
01:57PM -29.4782 135.5112 139° Southeast  Level Estimated
01:58PM -29.5748 135.6077 139° Southeast  Level Estimated
01:59PM -29.6713 135.7044 139° Southeast  Level Estimated
02:00PM -29.7677 135.8013 139° Southeast  Level Estimated
02:01PM -29.8640 135.8983 139° Southeast  Level Estimated
02:02PM -29.9603 135.9956 139° Southeast  Level Estimated
02:03PM -30.0565 136.0930 139° Southeast  Level Estimated
02:04PM -30.1527 136.1907 139° Southeast  Level Estimated
02:05PM -30.2487 136.2885 139° Southeast  Level Estimated
02:06PM -30.3447 136.3865 139° Southeast  Level Estimated
02:07PM -30.4406 136.4847 139° Southeast  Level Estimated
02:08PM -30.5365 136.5831 138° Southeast  Level Estimated
02:09PM -30.6322 136.6817 138° Southeast  Level Estimated
02:10PM -30.7279 136.7805 138° Southeast  Level Estimated
02:11PM -30.8236 136.8795 138° Southeast  Level Estimated
02:12PM -30.9191 136.9787 138° Southeast  Level Estimated
02:13PM -31.0146 137.0781 138° Southeast  Level Estimated
02:14PM -31.1100 137.1777 138° Southeast  Level Estimated
02:15PM -31.2053 137.2775 138° Southeast  Level Estimated
02:16PM -31.3005 137.3775 138° Southeast  Level Estimated
02:17PM -31.3957 137.4776 138° Southeast  Level Estimated
02:18PM -31.4907 137.5780 138° Southeast  Level Estimated
02:19PM -31.5858 137.6786 138° Southeast  Level Estimated
02:20PM -31.6807 137.7794 138° Southeast  Level Estimated
02:21PM -31.7755 137.8804 138° Southeast  Level Estimated
02:22PM -31.8703 137.9817 138° Southeast  Level Estimated
02:23PM -31.9650 138.0831 138° Southeast  Level Estimated
02:24PM -32.0596 138.1848 138° Southeast  Level Estimated
02:25PM -32.1541 138.2866 138° Southeast  Level Estimated
02:26PM -32.2485 138.3887 138° Southeast  Level Estimated
02:27PM -32.3429 138.4909 137° Southeast  Level Estimated
02:28PM -32.4372 138.5934 137° Southeast  Level Estimated
02:29PM -32.5314 138.6961 137° Southeast  Level Estimated
02:30PM -32.6255 138.7990 137° Southeast  Level Estimated
02:31PM -32.7195 138.9021 137° Southeast  Level Estimated
02:32PM -32.8134 139.0055 137° Southeast  Level Estimated
02:33PM -32.9073 139.1090 137° Southeast  Level Estimated
02:34PM -33.0011 139.2128 137° Southeast  Level Estimated
02:35PM -33.0948 139.3168 137° Southeast  Level Estimated
02:36PM -33.1884 139.4210 137° Southeast  Level Estimated
02:37PM -33.2819 139.5255 137° Southeast  Level Estimated
02:38PM -33.3753 139.6302 137° Southeast  Level Estimated
02:39PM -33.4686 139.7350 137° Southeast  Level Estimated
02:40PM -33.5619 139.8402 137° Southeast  Level Estimated
02:41PM -33.6550 139.9455 137° Southeast  Level Estimated
02:42PM -33.7481 140.0511 137° Southeast  Level Estimated
02:43PM -33.8411 140.1569 137° Southeast  Level Estimated
02:44PM -33.9340 140.2629 137° Southeast  Level Estimated
02:45PM -34.0268 140.3692 136° Southeast  Level Estimated
02:46PM -34.1195 140.4757 136° Southeast  Level Estimated
02:47PM -34.2121 140.5824 136° Southeast  Level Estimated
02:48PM -34.3046 140.6894 136° Southeast  Level Estimated
02:49PM -34.3970 140.7966 136° Southeast  Level Estimated
02:50PM -34.4894 140.9041 136° Southeast  Level Estimated
02:51PM -34.5816 141.0117 136° Southeast  Level Estimated
02:52PM -34.6738 141.1197 136° Southeast  Level Estimated
02:53PM -34.7658 141.2278 136° Southeast  Level Estimated
02:54PM -34.8577 141.3362 136° Southeast  Level Estimated
02:55PM -34.9496 141.4449 136° Southeast  Level Estimated
02:56PM -35.0414 141.5538 136° Southeast  Level Estimated
02:57PM -35.1330 141.6629 136° Southeast  Level Estimated
02:58PM -35.2246 141.7723 136° Southeast  Level Estimated
02:59PM -35.3161 141.8819 136° Southeast  Level Estimated
03:00PM -35.4074 141.9918 136° Southeast  Level Estimated
03:01PM -35.4987 142.1019 135° Southeast  Level Estimated
03:02PM -35.5899 142.2123 135° Southeast  Level Estimated
03:03PM -35.6809 142.3229 135° Southeast  Level Estimated
03:04PM -35.7719 142.4338 135° Southeast  Level Estimated
03:05PM -35.8627 142.5449 135° Southeast  Level Estimated
03:06PM -35.9535 142.6563 135° Southeast  Level Estimated
03:07PM -36.0442 142.7679 135° Southeast  Level Estimated
03:08PM -36.1347 142.8799 135° Southeast  Level Estimated
03:09PM -36.2252 142.9920 135° Southeast  Level Estimated
03:10PM -36.3155 143.1044 135° Southeast  Level Estimated
03:11PM -36.4057 143.2171 135° Southeast  Level Estimated
03:12PM -36.4959 143.3300 135° Southeast  Level Estimated
03:13PM -36.5859 143.4433 135° Southeast  Level Estimated
03:14PM -36.6758 143.5567 135° Southeast  Level Estimated
03:15PM -36.7656 143.6705 135° Southeast  Level Estimated
03:16PM -36.8553 143.7845 134° Southeast  Level Estimated
03:17PM -36.9449 143.8987 134° Southeast  Level Estimated
03:18PM -37.0344 144.0133 134° Southeast  Level Estimated
03:19PM -37.1237 144.1281 134° Southeast  Level Estimated
03:20PM -37.2130 144.2432 134° Southeast  Level Estimated
03:21PM -37.3022 144.3585 134° Southeast  Level Estimated
03:22PM -37.3912 144.4741 134° Southeast  Level Estimated
03:23PM -37.4801 144.5900 134° Southeast  Level Estimated
03:24PM -37.5689 144.7062 134° Southeast  Level Estimated
03:25PM -37.6576 144.8227 134° Southeast  Level Estimated
03:26PM -37.7462 144.9394 314° West  Level Estimated
03:27PM -37.6576 144.8227 134° Southeast  Level Estimated
03:28PM -37.7462 144.9394 314° West  Level Estimated
03:29PM -37.6576 144.8227 134° Southeast  Level Estimated
03:30PM -37.7462 144.9394 314° West  Level Estimated
03:31PM -37.6576 144.8227 134° Southeast  Level Estimated
03:32PM -37.7462 144.9394 314° West  Level Estimated
03:33PM -37.6614 144.8277 134° Southeast  Level Estimated
03:34PM -37.7462 144.9394 314° West  Level Estimated
03:35PM -37.6614 144.8277 134° Southeast  Level Estimated
03:36PM -37.7462 144.9394 314° West  Level Estimated
03:37PM -37.6614 144.8277 134° Southeast  Level Estimated
03:38PM -37.7462 144.9394 134° Southeast  Level Estimated